sensor_id;sensor_type;location;lat;lon;timestamp;P1;durP1;ratioP1;P2;durP2;ratioP2
16667;SDS011;8447;52.630;4.734;2023-04-19T00:01:38;7.37;;;5.93;;
16667;SDS011;8447;52.630;4.734;2023-04-19T00:04:05;10.67;;;6.37;;
16667;SDS011;8447;52.630;4.734;2023-04-19T00:06:31;9.90;;;6.57;;
16667;SDS011;8447;52.630;4.734;2023-04-19T00:08:59;9.40;;;6.63;;
16667;SDS011;8447;52.630;4.734;2023-04-19T00:11:25;8.60;;;6.57;;
16667;SDS011;8447;52.630;4.734;2023-04-19T00:13:53;7.83;;;6.27;;
16667;SDS011;8447;52.630;4.734;2023-04-19T00:16:19;8.80;;;7.57;;
16667;SDS011;8447;52.630;4.734;2023-04-19T00:18:46;9.83;;;7.07;;
16667;SDS011;8447;52.630;4.734;2023-04-19T00:21:12;9.23;;;6.80;;
16667;SDS011;8447;52.630;4.734;2023-04-19T00:23:39;7.93;;;6.63;;
16667;SDS011;8447;52.630;4.734;2023-04-19T00:26:05;7.47;;;6.47;;
16667;SDS011;8447;52.630;4.734;2023-04-19T00:28:32;11.40;;;6.93;;
16667;SDS011;8447;52.630;4.734;2023-04-19T00:31:00;9.27;;;7.40;;
16667;SDS011;8447;52.630;4.734;2023-04-19T00:33:26;9.73;;;7.20;;
16667;SDS011;8447;52.630;4.734;2023-04-19T00:35:53;12.43;;;7.00;;
16667;SDS011;8447;52.630;4.734;2023-04-19T00:38:19;9.67;;;7.13;;
16667;SDS011;8447;52.630;4.734;2023-04-19T00:40:45;10.43;;;6.70;;
16667;SDS011;8447;52.630;4.734;2023-04-19T00:43:15;9.63;;;7.40;;
16667;SDS011;8447;52.630;4.734;2023-04-19T00:45:42;8.60;;;6.97;;
16667;SDS011;8447;52.630;4.734;2023-04-19T00:48:09;7.80;;;6.83;;
16667;SDS011;8447;52.630;4.734;2023-04-19T00:50:36;10.03;;;7.00;;
16667;SDS011;8447;52.630;4.734;2023-04-19T00:53:02;9.57;;;6.73;;
16667;SDS011;8447;52.630;4.734;2023-04-19T00:55:29;9.00;;;7.20;;
16667;SDS011;8447;52.630;4.734;2023-04-19T00:57:55;9.03;;;6.50;;
16667;SDS011;8447;52.630;4.734;2023-04-19T01:00:22;8.57;;;7.60;;
16667;SDS011;8447;52.630;4.734;2023-04-19T01:02:48;9.40;;;6.70;;
16667;SDS011;8447;52.630;4.734;2023-04-19T01:05:16;8.50;;;7.23;;
16667;SDS011;8447;52.630;4.734;2023-04-19T01:07:43;9.23;;;6.97;;
16667;SDS011;8447;52.630;4.734;2023-04-19T01:10:09;11.03;;;7.23;;
16667;SDS011;8447;52.630;4.734;2023-04-19T01:12:36;8.07;;;6.77;;
16667;SDS011;8447;52.630;4.734;2023-04-19T01:15:02;9.47;;;6.63;;
16667;SDS011;8447;52.630;4.734;2023-04-19T01:17:29;9.20;;;6.90;;
16667;SDS011;8447;52.630;4.734;2023-04-19T01:19:59;9.70;;;7.37;;
16667;SDS011;8447;52.630;4.734;2023-04-19T01:22:27;8.93;;;6.57;;
16667;SDS011;8447;52.630;4.734;2023-04-19T01:24:56;9.47;;;7.50;;
16667;SDS011;8447;52.630;4.734;2023-04-19T01:27:22;8.57;;;6.83;;
16667;SDS011;8447;52.630;4.734;2023-04-19T01:29:49;8.57;;;7.00;;
16667;SDS011;8447;52.630;4.734;2023-04-19T01:32:15;8.93;;;6.37;;
16667;SDS011;8447;52.630;4.734;2023-04-19T01:34:41;10.67;;;6.67;;
16667;SDS011;8447;52.630;4.734;2023-04-19T01:37:08;11.30;;;7.00;;
16667;SDS011;8447;52.630;4.734;2023-04-19T01:39:36;12.07;;;7.40;;
16667;SDS011;8447;52.630;4.734;2023-04-19T01:42:02;9.10;;;6.80;;
16667;SDS011;8447;52.630;4.734;2023-04-19T01:44:29;13.13;;;7.10;;
16667;SDS011;8447;52.630;4.734;2023-04-19T01:46:55;9.60;;;7.73;;
16667;SDS011;8447;52.630;4.734;2023-04-19T01:49:22;11.70;;;7.10;;
16667;SDS011;8447;52.630;4.734;2023-04-19T01:51:48;7.60;;;6.53;;
16667;SDS011;8447;52.630;4.734;2023-04-19T01:54:14;8.23;;;6.57;;
16667;SDS011;8447;52.630;4.734;2023-04-19T01:56:42;7.67;;;6.63;;
16667;SDS011;8447;52.630;4.734;2023-04-19T01:59:08;8.30;;;6.93;;
16667;SDS011;8447;52.630;4.734;2023-04-19T02:01:35;10.73;;;7.83;;
16667;SDS011;8447;52.630;4.734;2023-04-19T02:04:01;10.67;;;7.00;;
16667;SDS011;8447;52.630;4.734;2023-04-19T02:06:28;7.77;;;6.70;;
16667;SDS011;8447;52.630;4.734;2023-04-19T02:08:54;9.00;;;6.83;;
16667;SDS011;8447;52.630;4.734;2023-04-19T02:11:21;11.23;;;6.97;;
16667;SDS011;8447;52.630;4.734;2023-04-19T02:13:48;8.50;;;7.07;;
16667;SDS011;8447;52.630;4.734;2023-04-19T02:16:15;9.00;;;6.67;;
16667;SDS011;8447;52.630;4.734;2023-04-19T02:18:41;10.53;;;6.67;;
16667;SDS011;8447;52.630;4.734;2023-04-19T02:21:08;11.23;;;7.10;;
16667;SDS011;8447;52.630;4.734;2023-04-19T02:23:34;9.57;;;6.87;;
16667;SDS011;8447;52.630;4.734;2023-04-19T02:26:01;9.40;;;6.53;;
16667;SDS011;8447;52.630;4.734;2023-04-19T02:28:27;11.67;;;7.13;;
16667;SDS011;8447;52.630;4.734;2023-04-19T02:30:55;10.27;;;7.13;;
16667;SDS011;8447;52.630;4.734;2023-04-19T02:33:22;8.47;;;6.90;;
16667;SDS011;8447;52.630;4.734;2023-04-19T02:35:48;10.90;;;7.03;;
16667;SDS011;8447;52.630;4.734;2023-04-19T02:38:14;10.33;;;7.07;;
16667;SDS011;8447;52.630;4.734;2023-04-19T02:40:41;11.83;;;6.80;;
16667;SDS011;8447;52.630;4.734;2023-04-19T02:43:07;8.67;;;7.33;;
16667;SDS011;8447;52.630;4.734;2023-04-19T02:45:34;9.27;;;6.53;;
16667;SDS011;8447;52.630;4.734;2023-04-19T02:48:02;9.57;;;6.67;;
16667;SDS011;8447;52.630;4.734;2023-04-19T02:50:29;8.33;;;7.10;;
16667;SDS011;8447;52.630;4.734;2023-04-19T02:52:56;8.50;;;6.47;;
16667;SDS011;8447;52.630;4.734;2023-04-19T02:55:22;8.63;;;6.20;;
16667;SDS011;8447;52.630;4.734;2023-04-19T02:57:49;9.33;;;6.50;;
16667;SDS011;8447;52.630;4.734;2023-04-19T03:00:16;7.13;;;5.60;;
16667;SDS011;8447;52.630;4.734;2023-04-19T03:02:42;9.17;;;6.73;;
16667;SDS011;8447;52.630;4.734;2023-04-19T03:05:10;8.30;;;6.90;;
16667;SDS011;8447;52.630;4.734;2023-04-19T03:07:36;9.07;;;6.20;;
16667;SDS011;8447;52.630;4.734;2023-04-19T03:10:03;16.80;;;6.03;;
16667;SDS011;8447;52.630;4.734;2023-04-19T03:12:30;10.57;;;6.13;;
16667;SDS011;8447;52.630;4.734;2023-04-19T03:14:56;8.10;;;6.00;;
16667;SDS011;8447;52.630;4.734;2023-04-19T03:17:22;8.67;;;5.90;;
16667;SDS011;8447;52.630;4.734;2023-04-19T03:19:49;7.30;;;5.93;;
16667;SDS011;8447;52.630;4.734;2023-04-19T03:22:17;8.37;;;6.43;;
16667;SDS011;8447;52.630;4.734;2023-04-19T03:24:44;7.57;;;5.47;;
16667;SDS011;8447;52.630;4.734;2023-04-19T03:27:10;6.00;;;5.40;;
16667;SDS011;8447;52.630;4.734;2023-04-19T03:29:36;7.33;;;5.23;;
16667;SDS011;8447;52.630;4.734;2023-04-19T03:32:03;7.80;;;5.63;;
16667;SDS011;8447;52.630;4.734;2023-04-19T03:34:29;8.97;;;5.50;;
16667;SDS011;8447;52.630;4.734;2023-04-19T03:36:56;6.50;;;5.70;;
16667;SDS011;8447;52.630;4.734;2023-04-19T03:39:23;6.40;;;5.13;;
16667;SDS011;8447;52.630;4.734;2023-04-19T03:41:50;6.50;;;4.93;;
16667;SDS011;8447;52.630;4.734;2023-04-19T03:44:16;6.23;;;5.10;;
16667;SDS011;8447;52.630;4.734;2023-04-19T03:46:43;6.97;;;5.10;;
16667;SDS011;8447;52.630;4.734;2023-04-19T03:49:10;8.87;;;5.60;;
16667;SDS011;8447;52.630;4.734;2023-04-19T03:51:36;7.07;;;5.40;;
16667;SDS011;8447;52.630;4.734;2023-04-19T03:54:03;6.67;;;5.20;;
16667;SDS011;8447;52.630;4.734;2023-04-19T03:56:30;5.93;;;4.70;;
16667;SDS011;8447;52.630;4.734;2023-04-19T03:58:57;6.30;;;5.00;;
16667;SDS011;8447;52.630;4.734;2023-04-19T04:01:23;6.60;;;4.80;;
16667;SDS011;8447;52.630;4.734;2023-04-19T04:03:50;7.03;;;4.80;;
16667;SDS011;8447;52.630;4.734;2023-04-19T04:06:17;6.97;;;4.93;;
16667;SDS011;8447;52.630;4.734;2023-04-19T04:08:43;7.07;;;4.63;;
16667;SDS011;8447;52.630;4.734;2023-04-19T04:11:10;5.40;;;4.57;;
16667;SDS011;8447;52.630;4.734;2023-04-19T04:13:38;6.57;;;4.70;;
16667;SDS011;8447;52.630;4.734;2023-04-19T04:16:04;5.03;;;4.37;;
16667;SDS011;8447;52.630;4.734;2023-04-19T04:18:30;10.03;;;5.00;;
16667;SDS011;8447;52.630;4.734;2023-04-19T04:20:57;7.27;;;4.77;;
16667;SDS011;8447;52.630;4.734;2023-04-19T04:23:23;5.80;;;4.50;;
16667;SDS011;8447;52.630;4.734;2023-04-19T04:25:55;6.37;;;4.83;;
16667;SDS011;8447;52.630;4.734;2023-04-19T04:28:22;5.30;;;3.83;;
16667;SDS011;8447;52.630;4.734;2023-04-19T04:30:49;6.40;;;4.40;;
16667;SDS011;8447;52.630;4.734;2023-04-19T04:33:16;5.97;;;4.40;;
16667;SDS011;8447;52.630;4.734;2023-04-19T04:35:42;5.70;;;3.70;;
16667;SDS011;8447;52.630;4.734;2023-04-19T04:38:09;5.87;;;4.30;;
16667;SDS011;8447;52.630;4.734;2023-04-19T04:40:35;5.93;;;4.70;;
16667;SDS011;8447;52.630;4.734;2023-04-19T04:43:01;5.27;;;4.60;;
16667;SDS011;8447;52.630;4.734;2023-04-19T04:45:28;4.27;;;3.87;;
16667;SDS011;8447;52.630;4.734;2023-04-19T04:47:57;5.47;;;4.23;;
16667;SDS011;8447;52.630;4.734;2023-04-19T04:50:23;5.50;;;4.33;;
16667;SDS011;8447;52.630;4.734;2023-04-19T04:52:50;6.00;;;4.53;;
16667;SDS011;8447;52.630;4.734;2023-04-19T04:55:17;5.97;;;4.53;;
16667;SDS011;8447;52.630;4.734;2023-04-19T04:57:44;6.40;;;4.60;;
16667;SDS011;8447;52.630;4.734;2023-04-19T05:00:10;6.27;;;4.37;;
16667;SDS011;8447;52.630;4.734;2023-04-19T05:02:37;8.53;;;5.37;;
16667;SDS011;8447;52.630;4.734;2023-04-19T05:05:06;6.03;;;5.00;;
16667;SDS011;8447;52.630;4.734;2023-04-19T05:07:35;7.07;;;5.10;;
16667;SDS011;8447;52.630;4.734;2023-04-19T05:10:01;7.00;;;4.57;;
16667;SDS011;8447;52.630;4.734;2023-04-19T05:12:28;6.67;;;4.93;;
16667;SDS011;8447;52.630;4.734;2023-04-19T05:14:54;9.33;;;5.20;;
16667;SDS011;8447;52.630;4.734;2023-04-19T05:17:20;8.27;;;4.53;;
16667;SDS011;8447;52.630;4.734;2023-04-19T05:19:47;6.07;;;4.30;;
16667;SDS011;8447;52.630;4.734;2023-04-19T05:22:15;6.20;;;4.97;;
16667;SDS011;8447;52.630;4.734;2023-04-19T05:24:41;4.70;;;3.90;;
16667;SDS011;8447;52.630;4.734;2023-04-19T05:27:07;6.93;;;5.07;;
16667;SDS011;8447;52.630;4.734;2023-04-19T05:29:35;7.37;;;4.43;;
16667;SDS011;8447;52.630;4.734;2023-04-19T05:32:01;6.23;;;4.83;;
16667;SDS011;8447;52.630;4.734;2023-04-19T05:34:28;6.10;;;4.50;;
16667;SDS011;8447;52.630;4.734;2023-04-19T05:36:54;5.93;;;4.90;;
16667;SDS011;8447;52.630;4.734;2023-04-19T05:39:22;6.90;;;4.47;;
16667;SDS011;8447;52.630;4.734;2023-04-19T05:41:48;11.13;;;5.40;;
16667;SDS011;8447;52.630;4.734;2023-04-19T05:44:15;6.97;;;4.67;;
16667;SDS011;8447;52.630;4.734;2023-04-19T05:46:41;6.60;;;4.53;;
16667;SDS011;8447;52.630;4.734;2023-04-19T05:49:07;7.37;;;4.73;;
16667;SDS011;8447;52.630;4.734;2023-04-19T05:51:34;5.43;;;4.50;;
16667;SDS011;8447;52.630;4.734;2023-04-19T05:54:00;6.20;;;4.33;;
16667;SDS011;8447;52.630;4.734;2023-04-19T05:56:28;5.97;;;4.53;;
16667;SDS011;8447;52.630;4.734;2023-04-19T05:58:54;6.27;;;4.53;;
16667;SDS011;8447;52.630;4.734;2023-04-19T06:01:21;9.07;;;4.50;;
16667;SDS011;8447;52.630;4.734;2023-04-19T06:03:47;6.07;;;4.27;;
16667;SDS011;8447;52.630;4.734;2023-04-19T06:06:17;7.23;;;4.67;;
16667;SDS011;8447;52.630;4.734;2023-04-19T06:08:43;5.17;;;4.27;;
16667;SDS011;8447;52.630;4.734;2023-04-19T06:11:09;9.17;;;4.47;;
16667;SDS011;8447;52.630;4.734;2023-04-19T06:13:37;8.07;;;4.43;;
16667;SDS011;8447;52.630;4.734;2023-04-19T06:16:04;5.87;;;4.07;;
16667;SDS011;8447;52.630;4.734;2023-04-19T06:18:30;6.10;;;4.80;;
16667;SDS011;8447;52.630;4.734;2023-04-19T06:20:57;6.70;;;4.40;;
16667;SDS011;8447;52.630;4.734;2023-04-19T06:23:23;10.13;;;4.47;;
16667;SDS011;8447;52.630;4.734;2023-04-19T06:25:51;6.53;;;4.13;;
16667;SDS011;8447;52.630;4.734;2023-04-19T06:28:17;5.67;;;4.00;;
16667;SDS011;8447;52.630;4.734;2023-04-19T06:30:45;4.87;;;3.97;;
16667;SDS011;8447;52.630;4.734;2023-04-19T06:33:11;4.67;;;3.67;;
16667;SDS011;8447;52.630;4.734;2023-04-19T06:35:37;7.87;;;4.00;;
16667;SDS011;8447;52.630;4.734;2023-04-19T06:38:04;5.20;;;4.37;;
16667;SDS011;8447;52.630;4.734;2023-04-19T06:40:30;6.90;;;4.77;;
16667;SDS011;8447;52.630;4.734;2023-04-19T06:42:56;9.07;;;4.30;;
16667;SDS011;8447;52.630;4.734;2023-04-19T06:45:23;5.00;;;3.80;;
16667;SDS011;8447;52.630;4.734;2023-04-19T06:47:50;4.60;;;3.60;;
16667;SDS011;8447;52.630;4.734;2023-04-19T06:50:17;7.50;;;4.40;;
16667;SDS011;8447;52.630;4.734;2023-04-19T06:52:43;5.07;;;3.60;;
16667;SDS011;8447;52.630;4.734;2023-04-19T06:55:09;7.10;;;3.60;;
16667;SDS011;8447;52.630;4.734;2023-04-19T06:57:36;5.27;;;3.70;;
16667;SDS011;8447;52.630;4.734;2023-04-19T07:00:03;5.93;;;3.17;;
16667;SDS011;8447;52.630;4.734;2023-04-19T07:02:30;4.60;;;3.67;;
16667;SDS011;8447;52.630;4.734;2023-04-19T07:04:58;5.80;;;3.57;;
16667;SDS011;8447;52.630;4.734;2023-04-19T07:07:24;5.00;;;3.57;;
16667;SDS011;8447;52.630;4.734;2023-04-19T07:09:51;5.33;;;3.47;;
16667;SDS011;8447;52.630;4.734;2023-04-19T07:12:18;4.27;;;3.30;;
16667;SDS011;8447;52.630;4.734;2023-04-19T07:14:44;5.93;;;3.40;;
16667;SDS011;8447;52.630;4.734;2023-04-19T07:17:10;4.43;;;3.30;;
16667;SDS011;8447;52.630;4.734;2023-04-19T07:19:38;5.00;;;3.03;;
16667;SDS011;8447;52.630;4.734;2023-04-19T07:22:05;5.37;;;3.27;;
16667;SDS011;8447;52.630;4.734;2023-04-19T07:24:32;4.47;;;3.10;;
16667;SDS011;8447;52.630;4.734;2023-04-19T07:26:58;4.33;;;2.90;;
16667;SDS011;8447;52.630;4.734;2023-04-19T07:29:25;4.17;;;2.30;;
16667;SDS011;8447;52.630;4.734;2023-04-19T07:31:52;3.63;;;2.80;;
16667;SDS011;8447;52.630;4.734;2023-04-19T07:34:19;3.00;;;2.10;;
16667;SDS011;8447;52.630;4.734;2023-04-19T07:36:45;3.83;;;3.03;;
16667;SDS011;8447;52.630;4.734;2023-04-19T07:39:13;3.60;;;2.53;;
16667;SDS011;8447;52.630;4.734;2023-04-19T07:41:40;3.67;;;2.50;;
16667;SDS011;8447;52.630;4.734;2023-04-19T07:44:06;4.73;;;2.70;;
16667;SDS011;8447;52.630;4.734;2023-04-19T07:46:32;3.13;;;2.60;;
16667;SDS011;8447;52.630;4.734;2023-04-19T07:48:59;3.73;;;2.47;;
16667;SDS011;8447;52.630;4.734;2023-04-19T07:51:25;2.90;;;2.20;;
16667;SDS011;8447;52.630;4.734;2023-04-19T07:53:51;3.50;;;2.37;;
16667;SDS011;8447;52.630;4.734;2023-04-19T07:56:20;3.40;;;2.07;;
16667;SDS011;8447;52.630;4.734;2023-04-19T07:58:47;4.30;;;2.40;;
16667;SDS011;8447;52.630;4.734;2023-04-19T08:01:13;4.87;;;1.90;;
16667;SDS011;8447;52.630;4.734;2023-04-19T08:03:40;3.03;;;2.00;;
16667;SDS011;8447;52.630;4.734;2023-04-19T08:06:06;3.83;;;2.30;;
16667;SDS011;8447;52.630;4.734;2023-04-19T08:08:33;3.03;;;2.13;;
16667;SDS011;8447;52.630;4.734;2023-04-19T08:10:59;3.07;;;1.73;;
16667;SDS011;8447;52.630;4.734;2023-04-19T08:13:27;2.00;;;1.57;;
16667;SDS011;8447;52.630;4.734;2023-04-19T08:15:54;3.07;;;1.50;;
16667;SDS011;8447;52.630;4.734;2023-04-19T08:18:20;3.27;;;1.67;;
16667;SDS011;8447;52.630;4.734;2023-04-19T08:20:46;2.70;;;1.50;;
16667;SDS011;8447;52.630;4.734;2023-04-19T08:23:13;2.40;;;1.30;;
16667;SDS011;8447;52.630;4.734;2023-04-19T08:25:39;2.23;;;1.30;;
16667;SDS011;8447;52.630;4.734;2023-04-19T08:28:06;2.03;;;1.40;;
16667;SDS011;8447;52.630;4.734;2023-04-19T08:30:33;2.10;;;1.60;;
16667;SDS011;8447;52.630;4.734;2023-04-19T08:33:00;2.17;;;1.63;;
16667;SDS011;8447;52.630;4.734;2023-04-19T08:35:26;1.93;;;1.63;;
16667;SDS011;8447;52.630;4.734;2023-04-19T08:37:53;2.20;;;1.50;;
16667;SDS011;8447;52.630;4.734;2023-04-19T08:40:19;5.57;;;1.70;;
16667;SDS011;8447;52.630;4.734;2023-04-19T08:42:45;2.30;;;1.80;;
16667;SDS011;8447;52.630;4.734;2023-04-19T08:45:12;1.60;;;1.50;;
16667;SDS011;8447;52.630;4.734;2023-04-19T08:47:42;1.80;;;1.57;;
16667;SDS011;8447;52.630;4.734;2023-04-19T08:50:09;3.97;;;1.90;;
16667;SDS011;8447;52.630;4.734;2023-04-19T08:52:36;1.60;;;1.50;;
16667;SDS011;8447;52.630;4.734;2023-04-19T08:55:03;2.37;;;1.90;;
16667;SDS011;8447;52.630;4.734;2023-04-19T08:57:29;3.40;;;1.77;;
16667;SDS011;8447;52.630;4.734;2023-04-19T08:59:56;2.13;;;1.60;;
16667;SDS011;8447;52.630;4.734;2023-04-19T09:02:22;1.93;;;1.60;;
16667;SDS011;8447;52.630;4.734;2023-04-19T09:04:50;2.30;;;1.47;;
16667;SDS011;8447;52.630;4.734;2023-04-19T09:07:23;1.90;;;1.60;;
16667;SDS011;8447;52.630;4.734;2023-04-19T09:10:03;1.87;;;1.70;;
16667;SDS011;8447;52.630;4.734;2023-04-19T09:12:29;1.43;;;1.17;;
16667;SDS011;8447;52.630;4.734;2023-04-19T09:14:56;2.13;;;1.40;;
16667;SDS011;8447;52.630;4.734;2023-04-19T09:17:22;1.93;;;1.43;;
16667;SDS011;8447;52.630;4.734;2023-04-19T09:19:50;1.73;;;1.20;;
16667;SDS011;8447;52.630;4.734;2023-04-19T09:22:16;1.73;;;1.33;;
16667;SDS011;8447;52.630;4.734;2023-04-19T09:24:43;1.83;;;1.70;;
16667;SDS011;8447;52.630;4.734;2023-04-19T09:27:09;8.67;;;1.67;;
16667;SDS011;8447;52.630;4.734;2023-04-19T09:29:36;1.67;;;1.30;;
16667;SDS011;8447;52.630;4.734;2023-04-19T09:32:02;1.63;;;1.50;;
16667;SDS011;8447;52.630;4.734;2023-04-19T09:34:29;1.57;;;1.20;;
16667;SDS011;8447;52.630;4.734;2023-04-19T09:36:57;1.90;;;1.20;;
16667;SDS011;8447;52.630;4.734;2023-04-19T09:39:29;3.13;;;1.50;;
16667;SDS011;8447;52.630;4.734;2023-04-19T09:41:55;1.30;;;1.20;;
16667;SDS011;8447;52.630;4.734;2023-04-19T09:44:22;2.33;;;1.20;;
16667;SDS011;8447;52.630;4.734;2023-04-19T09:46:48;2.22;;;1.10;;
16667;SDS011;8447;52.630;4.734;2023-04-19T09:49:17;6.28;;;1.35;;
16667;SDS011;8447;52.630;4.734;2023-04-19T09:51:44;2.05;;;1.13;;
16667;SDS011;8447;52.630;4.734;2023-04-19T09:54:13;1.45;;;1.05;;
16667;SDS011;8447;52.630;4.734;2023-04-19T09:56:40;1.50;;;1.20;;
16667;SDS011;8447;52.630;4.734;2023-04-19T09:59:07;2.00;;;1.40;;
16667;SDS011;8447;52.630;4.734;2023-04-19T10:01:36;6.32;;;1.20;;
16667;SDS011;8447;52.630;4.734;2023-04-19T10:04:03;2.28;;;1.20;;
16667;SDS011;8447;52.630;4.734;2023-04-19T10:06:30;5.03;;;1.17;;
16667;SDS011;8447;52.630;4.734;2023-04-19T10:08:58;1.63;;;1.38;;
16667;SDS011;8447;52.630;4.734;2023-04-19T10:11:28;4.60;;;1.30;;
16667;SDS011;8447;52.630;4.734;2023-04-19T10:13:55;2.60;;;1.25;;
16667;SDS011;8447;52.630;4.734;2023-04-19T10:16:22;2.88;;;1.30;;
16667;SDS011;8447;52.630;4.734;2023-04-19T10:18:48;1.38;;;1.20;;
16667;SDS011;8447;52.630;4.734;2023-04-19T10:21:16;1.85;;;1.35;;
16667;SDS011;8447;52.630;4.734;2023-04-19T10:23:44;1.75;;;1.10;;
16667;SDS011;8447;52.630;4.734;2023-04-19T10:26:11;2.38;;;1.23;;
16667;SDS011;8447;52.630;4.734;2023-04-19T10:28:39;1.95;;;1.40;;
16667;SDS011;8447;52.630;4.734;2023-04-19T10:31:09;1.25;;;1.15;;
16667;SDS011;8447;52.630;4.734;2023-04-19T10:33:38;1.42;;;1.33;;
16667;SDS011;8447;52.630;4.734;2023-04-19T10:36:07;2.50;;;1.20;;
16667;SDS011;8447;52.630;4.734;2023-04-19T10:38:34;3.25;;;1.25;;
16667;SDS011;8447;52.630;4.734;2023-04-19T10:41:01;2.20;;;1.38;;
16667;SDS011;8447;52.630;4.734;2023-04-19T10:43:28;5.03;;;1.42;;
16667;SDS011;8447;52.630;4.734;2023-04-19T10:45:59;2.75;;;1.50;;
16667;SDS011;8447;52.630;4.734;2023-04-19T10:48:32;1.77;;;1.30;;
16667;SDS011;8447;52.630;4.734;2023-04-19T10:50:59;1.48;;;1.38;;
16667;SDS011;8447;52.630;4.734;2023-04-19T10:53:41;2.10;;;1.50;;
16667;SDS011;8447;52.630;4.734;2023-04-19T10:56:08;1.27;;;1.17;;
16667;SDS011;8447;52.630;4.734;2023-04-19T11:01:32;2.00;;;1.70;;
16667;SDS011;8447;52.630;4.734;2023-04-19T11:03:59;2.42;;;1.92;;
16667;SDS011;8447;52.630;4.734;2023-04-19T11:06:25;2.28;;;1.70;;
16667;SDS011;8447;52.630;4.734;2023-04-19T11:08:52;2.17;;;1.75;;
16667;SDS011;8447;52.630;4.734;2023-04-19T11:11:18;2.75;;;1.50;;
16667;SDS011;8447;52.630;4.734;2023-04-19T11:13:46;3.17;;;1.88;;
16667;SDS011;8447;52.630;4.734;2023-04-19T11:16:12;2.78;;;1.73;;
16667;SDS011;8447;52.630;4.734;2023-04-19T11:18:40;1.92;;;1.50;;
16667;SDS011;8447;52.630;4.734;2023-04-19T11:21:06;2.13;;;1.73;;
16667;SDS011;8447;52.630;4.734;2023-04-19T11:23:37;2.35;;;1.80;;
16667;SDS011;8447;52.630;4.734;2023-04-19T11:26:03;5.47;;;1.52;;
16667;SDS011;8447;52.630;4.734;2023-04-19T11:28:31;1.95;;;1.63;;
16667;SDS011;8447;52.630;4.734;2023-04-19T11:30:58;2.03;;;1.80;;
16667;SDS011;8447;52.630;4.734;2023-04-19T11:33:24;2.90;;;1.60;;
16667;SDS011;8447;52.630;4.734;2023-04-19T11:35:54;2.90;;;1.90;;
16667;SDS011;8447;52.630;4.734;2023-04-19T11:38:20;1.93;;;1.70;;
16667;SDS011;8447;52.630;4.734;2023-04-19T11:40:46;5.53;;;2.10;;
16667;SDS011;8447;52.630;4.734;2023-04-19T11:43:13;2.30;;;2.00;;
16667;SDS011;8447;52.630;4.734;2023-04-19T11:45:39;2.00;;;1.40;;
16667;SDS011;8447;52.630;4.734;2023-04-19T11:48:06;3.20;;;1.70;;
16667;SDS011;8447;52.630;4.734;2023-04-19T11:50:38;2.07;;;1.67;;
16667;SDS011;8447;52.630;4.734;2023-04-19T11:53:15;5.73;;;1.70;;
16667;SDS011;8447;52.630;4.734;2023-04-19T11:55:42;3.00;;;1.43;;
16667;SDS011;8447;52.630;4.734;2023-04-19T11:58:22;1.97;;;1.40;;
16667;SDS011;8447;52.630;4.734;2023-04-19T12:00:49;1.40;;;1.30;;
16667;SDS011;8447;52.630;4.734;2023-04-19T12:03:15;3.37;;;1.40;;
16667;SDS011;8447;52.630;4.734;2023-04-19T12:05:50;3.43;;;1.40;;
16667;SDS011;8447;52.630;4.734;2023-04-19T12:08:28;3.43;;;1.90;;
16667;SDS011;8447;52.630;4.734;2023-04-19T12:10:55;1.70;;;1.53;;
16667;SDS011;8447;52.630;4.734;2023-04-19T12:13:21;2.20;;;1.40;;
16667;SDS011;8447;52.630;4.734;2023-04-19T12:15:49;1.17;;;1.07;;
16667;SDS011;8447;52.630;4.734;2023-04-19T12:18:15;1.60;;;1.20;;
16667;SDS011;8447;52.630;4.734;2023-04-19T12:20:43;1.93;;;1.30;;
16667;SDS011;8447;52.630;4.734;2023-04-19T12:23:09;1.33;;;1.23;;
16667;SDS011;8447;52.630;4.734;2023-04-19T12:25:39;1.30;;;1.20;;
16667;SDS011;8447;52.630;4.734;2023-04-19T12:28:05;2.87;;;1.30;;
16667;SDS011;8447;52.630;4.734;2023-04-19T12:30:32;1.40;;;1.30;;
16667;SDS011;8447;52.630;4.734;2023-04-19T12:32:59;2.17;;;1.50;;
16667;SDS011;8447;52.630;4.734;2023-04-19T12:35:26;1.80;;;1.23;;
16667;SDS011;8447;52.630;4.734;2023-04-19T12:37:53;1.30;;;1.20;;
16667;SDS011;8447;52.630;4.734;2023-04-19T12:40:20;1.77;;;1.00;;
16667;SDS011;8447;52.630;4.734;2023-04-19T12:42:48;1.40;;;1.30;;
16667;SDS011;8447;52.630;4.734;2023-04-19T12:45:15;1.67;;;1.30;;
16667;SDS011;8447;52.630;4.734;2023-04-19T12:47:42;2.30;;;1.30;;
16667;SDS011;8447;52.630;4.734;2023-04-19T12:50:08;2.53;;;1.13;;
16667;SDS011;8447;52.630;4.734;2023-04-19T12:52:34;2.37;;;1.23;;
16667;SDS011;8447;52.630;4.734;2023-04-19T12:55:01;1.33;;;1.13;;
16667;SDS011;8447;52.630;4.734;2023-04-19T12:57:27;3.10;;;0.97;;
16667;SDS011;8447;52.630;4.734;2023-04-19T12:59:55;1.93;;;1.50;;
16667;SDS011;8447;52.630;4.734;2023-04-19T13:02:21;4.10;;;1.20;;
16667;SDS011;8447;52.630;4.734;2023-04-19T13:04:48;2.57;;;1.17;;
16667;SDS011;8447;52.630;4.734;2023-04-19T13:07:15;1.97;;;0.70;;
16667;SDS011;8447;52.630;4.734;2023-04-19T13:09:41;2.70;;;1.10;;
16667;SDS011;8447;52.630;4.734;2023-04-19T13:12:07;1.33;;;1.10;;
16667;SDS011;8447;52.630;4.734;2023-04-19T13:14:34;1.27;;;1.10;;
16667;SDS011;8447;52.630;4.734;2023-04-19T13:17:01;1.63;;;1.07;;
16667;SDS011;8447;52.630;4.734;2023-04-19T13:19:28;0.97;;;0.90;;
16667;SDS011;8447;52.630;4.734;2023-04-19T13:21:55;3.30;;;1.20;;
16667;SDS011;8447;52.630;4.734;2023-04-19T13:24:21;1.23;;;1.10;;
16667;SDS011;8447;52.630;4.734;2023-04-19T13:26:47;2.33;;;1.20;;
16667;SDS011;8447;52.630;4.734;2023-04-19T13:29:14;1.10;;;1.00;;
16667;SDS011;8447;52.630;4.734;2023-04-19T13:31:40;2.27;;;1.07;;
16667;SDS011;8447;52.630;4.734;2023-04-19T13:34:08;0.93;;;0.80;;
16667;SDS011;8447;52.630;4.734;2023-04-19T13:36:35;1.07;;;0.77;;
16667;SDS011;8447;52.630;4.734;2023-04-19T13:39:01;3.73;;;1.10;;
16667;SDS011;8447;52.630;4.734;2023-04-19T13:41:28;1.70;;;0.90;;
16667;SDS011;8447;52.630;4.734;2023-04-19T13:43:54;1.57;;;1.13;;
16667;SDS011;8447;52.630;4.734;2023-04-19T13:46:20;1.53;;;1.00;;
16667;SDS011;8447;52.630;4.734;2023-04-19T13:48:47;2.80;;;1.43;;
16667;SDS011;8447;52.630;4.734;2023-04-19T13:51:15;0.80;;;0.80;;
16667;SDS011;8447;52.630;4.734;2023-04-19T13:53:41;1.60;;;0.87;;
16667;SDS011;8447;52.630;4.734;2023-04-19T13:56:07;2.90;;;1.00;;
16667;SDS011;8447;52.630;4.734;2023-04-19T13:58:34;3.57;;;1.10;;
16667;SDS011;8447;52.630;4.734;2023-04-19T14:01:00;2.83;;;1.20;;
16667;SDS011;8447;52.630;4.734;2023-04-19T14:03:27;1.40;;;1.20;;
16667;SDS011;8447;52.630;4.734;2023-04-19T14:05:53;1.30;;;1.00;;
16667;SDS011;8447;52.630;4.734;2023-04-19T14:08:22;2.17;;;1.00;;
16667;SDS011;8447;52.630;4.734;2023-04-19T14:10:48;2.43;;;0.90;;
16667;SDS011;8447;52.630;4.734;2023-04-19T14:13:15;1.93;;;1.37;;
16667;SDS011;8447;52.630;4.734;2023-04-19T14:15:41;4.17;;;1.60;;
16667;SDS011;8447;52.630;4.734;2023-04-19T14:18:07;1.80;;;1.30;;
16667;SDS011;8447;52.630;4.734;2023-04-19T14:20:34;1.43;;;1.20;;
16667;SDS011;8447;52.630;4.734;2023-04-19T14:23:00;2.70;;;1.43;;
16667;SDS011;8447;52.630;4.734;2023-04-19T14:25:28;2.20;;;0.90;;
16667;SDS011;8447;52.630;4.734;2023-04-19T14:27:55;1.17;;;1.07;;
16667;SDS011;8447;52.630;4.734;2023-04-19T14:30:21;1.47;;;0.80;;
16667;SDS011;8447;52.630;4.734;2023-04-19T14:32:49;4.73;;;0.97;;
16667;SDS011;8447;52.630;4.734;2023-04-19T14:35:16;1.67;;;1.40;;
16667;SDS011;8447;52.630;4.734;2023-04-19T14:37:42;2.00;;;1.00;;
16667;SDS011;8447;52.630;4.734;2023-04-19T14:40:09;3.77;;;1.30;;
16667;SDS011;8447;52.630;4.734;2023-04-19T14:42:37;2.83;;;1.80;;
16667;SDS011;8447;52.630;4.734;2023-04-19T14:45:03;3.93;;;1.67;;
16667;SDS011;8447;52.630;4.734;2023-04-19T14:47:30;1.10;;;0.93;;
16667;SDS011;8447;52.630;4.734;2023-04-19T14:49:56;1.80;;;1.70;;
16667;SDS011;8447;52.630;4.734;2023-04-19T14:52:23;2.17;;;0.93;;
16667;SDS011;8447;52.630;4.734;2023-04-19T14:54:49;2.97;;;1.47;;
16667;SDS011;8447;52.630;4.734;2023-04-19T14:57:16;1.60;;;1.50;;
16667;SDS011;8447;52.630;4.734;2023-04-19T14:59:44;2.37;;;1.63;;
16667;SDS011;8447;52.630;4.734;2023-04-19T15:02:10;2.90;;;1.47;;